sensor_id;sensor_type;location;lat;lon;timestamp;P1;durP1;ratioP1;P2;durP2;ratioP2
5555;SDS011;2801;50.972;7.856;2023-04-01T00:00:44;1.70;;;0.40;;
5555;SDS011;2801;50.972;7.856;2023-04-01T00:03:11;3.67;;;0.50;;
5555;SDS011;2801;50.972;7.856;2023-04-01T00:05:39;4.22;;;0.68;;
5555;SDS011;2801;50.972;7.856;2023-04-01T00:08:06;3.10;;;0.80;;
5555;SDS011;2801;50.972;7.856;2023-04-01T00:10:33;2.30;;;0.50;;
5555;SDS011;2801;50.972;7.856;2023-04-01T00:13:00;2.27;;;0.50;;
5555;SDS011;2801;50.972;7.856;2023-04-01T00:15:27;2.10;;;0.50;;
5555;SDS011;2801;50.972;7.856;2023-04-01T00:17:54;1.17;;;0.63;;
5555;SDS011;2801;50.972;7.856;2023-04-01T00:20:21;1.80;;;0.43;;
5555;SDS011;2801;50.972;7.856;2023-04-01T00:22:51;3.77;;;0.70;;
5555;SDS011;2801;50.972;7.856;2023-04-01T00:25:18;3.40;;;0.60;;
5555;SDS011;2801;50.972;7.856;2023-04-01T00:27:45;5.33;;;0.60;;
5555;SDS011;2801;50.972;7.856;2023-04-01T00:30:12;3.33;;;0.50;;
5555;SDS011;2801;50.972;7.856;2023-04-01T00:32:39;2.83;;;0.70;;
5555;SDS011;2801;50.972;7.856;2023-04-01T00:35:06;5.30;;;0.90;;
5555;SDS011;2801;50.972;7.856;2023-04-01T00:37:34;3.97;;;0.70;;
5555;SDS011;2801;50.972;7.856;2023-04-01T00:40:04;3.23;;;0.70;;
5555;SDS011;2801;50.972;7.856;2023-04-01T00:42:34;3.13;;;0.60;;
5555;SDS011;2801;50.972;7.856;2023-04-01T00:45:21;2.30;;;0.80;;
5555;SDS011;2801;50.972;7.856;2023-04-01T00:47:53;3.53;;;0.80;;
5555;SDS011;2801;50.972;7.856;2023-04-01T00:50:21;2.20;;;0.63;;
5555;SDS011;2801;50.972;7.856;2023-04-01T00:52:51;1.10;;;0.50;;
5555;SDS011;2801;50.972;7.856;2023-04-01T00:55:19;0.63;;;0.27;;
5555;SDS011;2801;50.972;7.856;2023-04-01T00:57:49;1.90;;;0.70;;
5555;SDS011;2801;50.972;7.856;2023-04-01T01:00:20;2.80;;;0.80;;
5555;SDS011;2801;50.972;7.856;2023-04-01T01:02:47;4.17;;;0.90;;
5555;SDS011;2801;50.972;7.856;2023-04-01T01:05:17;5.30;;;0.75;;
5555;SDS011;2801;50.972;7.856;2023-04-01T01:08:18;4.57;;;0.90;;
5555;SDS011;2801;50.972;7.856;2023-04-01T01:11:05;3.60;;;0.90;;
5555;SDS011;2801;50.972;7.856;2023-04-01T01:13:47;1.37;;;0.70;;
5555;SDS011;2801;50.972;7.856;2023-04-01T01:16:34;2.77;;;0.93;;
5555;SDS011;2801;50.972;7.856;2023-04-01T01:19:22;5.77;;;0.83;;
5555;SDS011;2801;50.972;7.856;2023-04-01T01:22:51;5.40;;;0.90;;
5555;SDS011;2801;50.972;7.856;2023-04-01T01:28:58;2.73;;;0.90;;
5555;SDS011;2801;50.972;7.856;2023-04-01T01:31:50;1.57;;;0.80;;
5555;SDS011;2801;50.972;7.856;2023-04-01T01:34:31;5.13;;;0.90;;
5555;SDS011;2801;50.972;7.856;2023-04-01T01:37:19;4.27;;;1.07;;
5555;SDS011;2801;50.972;7.856;2023-04-01T01:39:55;3.60;;;1.17;;
5555;SDS011;2801;50.972;7.856;2023-04-01T01:42:28;3.33;;;0.90;;
5555;SDS011;2801;50.972;7.856;2023-04-01T01:44:59;4.83;;;0.73;;
5555;SDS011;2801;50.972;7.856;2023-04-01T01:47:28;2.97;;;0.70;;
5555;SDS011;2801;50.972;7.856;2023-04-01T01:49:56;3.50;;;0.70;;
5555;SDS011;2801;50.972;7.856;2023-04-01T01:52:23;3.53;;;1.00;;
5555;SDS011;2801;50.972;7.856;2023-04-01T01:54:55;1.80;;;0.90;;
5555;SDS011;2801;50.972;7.856;2023-04-01T01:57:25;2.03;;;0.90;;
5555;SDS011;2801;50.972;7.856;2023-04-01T02:00:09;3.47;;;0.77;;
5555;SDS011;2801;50.972;7.856;2023-04-01T02:02:45;1.90;;;0.90;;
5555;SDS011;2801;50.972;7.856;2023-04-01T02:05:16;3.40;;;0.80;;
5555;SDS011;2801;50.972;7.856;2023-04-01T02:07:55;2.53;;;1.00;;
5555;SDS011;2801;50.972;7.856;2023-04-01T02:10:35;3.13;;;1.10;;
5555;SDS011;2801;50.972;7.856;2023-04-01T02:13:13;3.70;;;1.00;;
5555;SDS011;2801;50.972;7.856;2023-04-01T02:15:56;4.83;;;1.00;;
5555;SDS011;2801;50.972;7.856;2023-04-01T02:18:31;1.27;;;0.60;;
5555;SDS011;2801;50.972;7.856;2023-04-01T02:21:03;2.57;;;0.77;;
5555;SDS011;2801;50.972;7.856;2023-04-01T02:23:33;1.80;;;0.73;;
5555;SDS011;2801;50.972;7.856;2023-04-01T02:26:04;0.93;;;0.50;;
5555;SDS011;2801;50.972;7.856;2023-04-01T02:28:35;2.70;;;0.77;;
5555;SDS011;2801;50.972;7.856;2023-04-01T02:31:04;2.77;;;0.60;;
5555;SDS011;2801;50.972;7.856;2023-04-01T02:33:34;2.20;;;0.45;;
5555;SDS011;2801;50.972;7.856;2023-04-01T02:36:03;2.53;;;0.63;;
5555;SDS011;2801;50.972;7.856;2023-04-01T02:38:31;5.32;;;0.82;;
5555;SDS011;2801;50.972;7.856;2023-04-01T02:41:01;2.00;;;0.60;;
5555;SDS011;2801;50.972;7.856;2023-04-01T02:43:31;3.17;;;0.80;;
5555;SDS011;2801;50.972;7.856;2023-04-01T02:45:58;1.50;;;0.60;;
5555;SDS011;2801;50.972;7.856;2023-04-01T02:48:25;0.77;;;0.63;;
5555;SDS011;2801;50.972;7.856;2023-04-01T02:50:52;0.97;;;0.57;;
5555;SDS011;2801;50.972;7.856;2023-04-01T02:53:20;3.17;;;0.50;;
5555;SDS011;2801;50.972;7.856;2023-04-01T02:55:46;1.97;;;0.60;;
5555;SDS011;2801;50.972;7.856;2023-04-01T02:58:16;3.57;;;0.80;;
5555;SDS011;2801;50.972;7.856;2023-04-01T03:00:44;4.57;;;0.80;;
5555;SDS011;2801;50.972;7.856;2023-04-01T03:03:11;4.50;;;0.70;;
5555;SDS011;2801;50.972;7.856;2023-04-01T03:05:39;4.10;;;0.73;;
5555;SDS011;2801;50.972;7.856;2023-04-01T03:08:07;5.00;;;0.70;;
5555;SDS011;2801;50.972;7.856;2023-04-01T03:10:34;2.40;;;0.50;;
5555;SDS011;2801;50.972;7.856;2023-04-01T03:13:01;4.00;;;0.63;;
5555;SDS011;2801;50.972;7.856;2023-04-01T03:15:28;1.53;;;0.70;;
5555;SDS011;2801;50.972;7.856;2023-04-01T03:17:55;3.03;;;0.60;;
5555;SDS011;2801;50.972;7.856;2023-04-01T03:20:22;6.70;;;0.60;;
5555;SDS011;2801;50.972;7.856;2023-04-01T03:22:48;6.00;;;0.77;;
5555;SDS011;2801;50.972;7.856;2023-04-01T03:25:16;5.55;;;1.08;;
5555;SDS011;2801;50.972;7.856;2023-04-01T03:27:44;2.23;;;0.70;;
5555;SDS011;2801;50.972;7.856;2023-04-01T03:30:11;2.83;;;0.83;;
5555;SDS011;2801;50.972;7.856;2023-04-01T03:32:38;3.37;;;0.77;;
5555;SDS011;2801;50.972;7.856;2023-04-01T03:35:05;3.37;;;0.90;;
5555;SDS011;2801;50.972;7.856;2023-04-01T03:37:33;5.63;;;0.70;;
5555;SDS011;2801;50.972;7.856;2023-04-01T03:40:00;1.97;;;1.00;;
5555;SDS011;2801;50.972;7.856;2023-04-01T03:42:27;0.87;;;0.50;;
5555;SDS011;2801;50.972;7.856;2023-04-01T03:44:54;2.60;;;0.90;;
5555;SDS011;2801;50.972;7.856;2023-04-01T03:47:21;5.07;;;0.80;;
5555;SDS011;2801;50.972;7.856;2023-04-01T03:49:48;1.93;;;0.93;;
5555;SDS011;2801;50.972;7.856;2023-04-01T03:52:15;2.57;;;1.23;;
5555;SDS011;2801;50.972;7.856;2023-04-01T03:54:42;3.27;;;0.70;;
5555;SDS011;2801;50.972;7.856;2023-04-01T03:57:09;1.27;;;0.57;;
5555;SDS011;2801;50.972;7.856;2023-04-01T03:59:36;2.33;;;0.80;;
5555;SDS011;2801;50.972;7.856;2023-04-01T04:02:03;1.40;;;0.80;;
5555;SDS011;2801;50.972;7.856;2023-04-01T04:04:31;2.13;;;0.70;;
5555;SDS011;2801;50.972;7.856;2023-04-01T04:06:58;4.73;;;0.70;;
5555;SDS011;2801;50.972;7.856;2023-04-01T04:09:25;4.17;;;0.67;;
5555;SDS011;2801;50.972;7.856;2023-04-01T04:11:52;1.67;;;0.57;;
5555;SDS011;2801;50.972;7.856;2023-04-01T04:14:19;2.60;;;0.60;;
5555;SDS011;2801;50.972;7.856;2023-04-01T04:16:45;2.50;;;0.60;;
5555;SDS011;2801;50.972;7.856;2023-04-01T04:19:12;3.27;;;0.60;;
5555;SDS011;2801;50.972;7.856;2023-04-01T04:21:40;2.63;;;0.60;;
5555;SDS011;2801;50.972;7.856;2023-04-01T04:24:08;1.30;;;0.50;;
5555;SDS011;2801;50.972;7.856;2023-04-01T04:26:36;1.20;;;0.70;;
5555;SDS011;2801;50.972;7.856;2023-04-01T04:29:03;2.60;;;0.90;;
5555;SDS011;2801;50.972;7.856;2023-04-01T04:31:29;2.67;;;0.70;;
5555;SDS011;2801;50.972;7.856;2023-04-01T04:33:58;2.20;;;0.60;;
5555;SDS011;2801;50.972;7.856;2023-04-01T04:36:27;2.67;;;0.50;;
5555;SDS011;2801;50.972;7.856;2023-04-01T04:38:54;1.03;;;0.67;;
5555;SDS011;2801;50.972;7.856;2023-04-01T04:41:21;1.53;;;0.57;;
5555;SDS011;2801;50.972;7.856;2023-04-01T04:43:52;2.10;;;0.50;;
5555;SDS011;2801;50.972;7.856;2023-04-01T04:46:24;4.33;;;0.70;;
5555;SDS011;2801;50.972;7.856;2023-04-01T04:48:51;1.25;;;0.47;;
5555;SDS011;2801;50.972;7.856;2023-04-01T04:51:19;2.67;;;0.43;;
5555;SDS011;2801;50.972;7.856;2023-04-01T04:53:47;0.80;;;0.50;;
5555;SDS011;2801;50.972;7.856;2023-04-01T04:56:18;2.03;;;0.90;;
5555;SDS011;2801;50.972;7.856;2023-04-01T04:58:47;1.40;;;0.60;;
5555;SDS011;2801;50.972;7.856;2023-04-01T05:01:15;2.67;;;0.80;;
5555;SDS011;2801;50.972;7.856;2023-04-01T05:03:43;0.37;;;0.30;;
5555;SDS011;2801;50.972;7.856;2023-04-01T05:06:12;1.50;;;0.60;;
5555;SDS011;2801;50.972;7.856;2023-04-01T05:08:41;3.07;;;0.70;;
5555;SDS011;2801;50.972;7.856;2023-04-01T05:11:17;2.23;;;0.50;;
5555;SDS011;2801;50.972;7.856;2023-04-01T05:13:46;2.53;;;0.60;;
5555;SDS011;2801;50.972;7.856;2023-04-01T05:16:14;5.47;;;0.97;;
5555;SDS011;2801;50.972;7.856;2023-04-01T05:18:45;3.50;;;0.90;;
5555;SDS011;2801;50.972;7.856;2023-04-01T05:21:14;2.70;;;0.90;;
5555;SDS011;2801;50.972;7.856;2023-04-01T05:23:42;1.10;;;0.60;;
5555;SDS011;2801;50.972;7.856;2023-04-01T05:26:11;0.70;;;0.57;;
5555;SDS011;2801;50.972;7.856;2023-04-01T05:28:40;2.53;;;0.80;;
5555;SDS011;2801;50.972;7.856;2023-04-01T05:31:08;3.23;;;0.77;;
5555;SDS011;2801;50.972;7.856;2023-04-01T05:33:35;1.30;;;0.60;;
5555;SDS011;2801;50.972;7.856;2023-04-01T05:36:10;3.13;;;0.70;;
5555;SDS011;2801;50.972;7.856;2023-04-01T05:38:42;1.90;;;0.77;;
5555;SDS011;2801;50.972;7.856;2023-04-01T05:41:09;2.27;;;0.50;;
5555;SDS011;2801;50.972;7.856;2023-04-01T05:43:37;1.20;;;0.50;;
5555;SDS011;2801;50.972;7.856;2023-04-01T05:46:06;2.30;;;0.77;;
5555;SDS011;2801;50.972;7.856;2023-04-01T05:48:34;1.87;;;0.40;;
5555;SDS011;2801;50.972;7.856;2023-04-01T05:51:01;2.00;;;0.70;;
5555;SDS011;2801;50.972;7.856;2023-04-01T05:53:29;2.40;;;0.67;;
5555;SDS011;2801;50.972;7.856;2023-04-01T05:56:01;1.00;;;0.50;;
5555;SDS011;2801;50.972;7.856;2023-04-01T05:58:29;1.57;;;0.60;;
5555;SDS011;2801;50.972;7.856;2023-04-01T06:01:03;0.50;;;0.30;;
5555;SDS011;2801;50.972;7.856;2023-04-01T06:03:41;1.33;;;0.50;;
5555;SDS011;2801;50.972;7.856;2023-04-01T06:06:25;1.50;;;0.40;;
5555;SDS011;2801;50.972;7.856;2023-04-01T06:08:57;0.87;;;0.40;;
5555;SDS011;2801;50.972;7.856;2023-04-01T06:11:39;2.17;;;0.40;;
5555;SDS011;2801;50.972;7.856;2023-04-01T06:14:20;0.97;;;0.47;;
5555;SDS011;2801;50.972;7.856;2023-04-01T06:20:15;0.87;;;0.53;;
5555;SDS011;2801;50.972;7.856;2023-04-01T06:30:16;0.40;;;0.40;;
5555;SDS011;2801;50.972;7.856;2023-04-01T06:48:40;0.50;;;0.50;;
5555;SDS011;2801;50.972;7.856;2023-04-01T06:54:33;0.73;;;0.50;;
5555;SDS011;2801;50.972;7.856;2023-04-01T06:57:50;1.77;;;0.30;;
5555;SDS011;2801;50.972;7.856;2023-04-01T07:00:22;1.17;;;0.40;;
5555;SDS011;2801;50.972;7.856;2023-04-01T07:03:26;0.82;;;0.40;;
5555;SDS011;2801;50.972;7.856;2023-04-01T07:06:04;0.80;;;0.40;;
5555;SDS011;2801;50.972;7.856;2023-04-01T07:08:38;0.70;;;0.30;;
5555;SDS011;2801;50.972;7.856;2023-04-01T07:11:11;0.33;;;0.30;;
5555;SDS011;2801;50.972;7.856;2023-04-01T07:13:58;1.20;;;0.40;;
5555;SDS011;2801;50.972;7.856;2023-04-01T07:16:33;0.60;;;0.33;;
5555;SDS011;2801;50.972;7.856;2023-04-01T07:24:59;1.15;;;0.45;;
5555;SDS011;2801;50.972;7.856;2023-04-01T07:27:37;0.67;;;0.47;;
5555;SDS011;2801;50.972;7.856;2023-04-01T07:30:06;0.63;;;0.50;;
5555;SDS011;2801;50.972;7.856;2023-04-01T07:32:51;0.75;;;0.40;;
5555;SDS011;2801;50.972;7.856;2023-04-01T07:35:41;1.40;;;0.47;;
5555;SDS011;2801;50.972;7.856;2023-04-01T07:44:25;0.40;;;0.40;;
5555;SDS011;2801;50.972;7.856;2023-04-01T07:47:09;2.42;;;0.50;;
5555;SDS011;2801;50.972;7.856;2023-04-01T07:53:13;0.57;;;0.40;;
5555;SDS011;2801;50.972;7.856;2023-04-01T07:56:22;1.33;;;0.55;;
5555;SDS011;2801;50.972;7.856;2023-04-01T08:04:28;1.27;;;1.00;;
5555;SDS011;2801;50.972;7.856;2023-04-01T08:07:23;1.87;;;0.80;;
5555;SDS011;2801;50.972;7.856;2023-04-01T08:10:31;1.30;;;0.98;;
5555;SDS011;2801;50.972;7.856;2023-04-01T08:13:10;1.35;;;0.73;;
5555;SDS011;2801;50.972;7.856;2023-04-01T08:16:32;0.90;;;0.60;;
5555;SDS011;2801;50.972;7.856;2023-04-01T08:22:01;2.07;;;0.90;;
5555;SDS011;2801;50.972;7.856;2023-04-01T08:24:41;2.03;;;0.60;;
5555;SDS011;2801;50.972;7.856;2023-04-01T08:27:21;0.65;;;0.50;;
5555;SDS011;2801;50.972;7.856;2023-04-01T08:30:49;0.57;;;0.57;;
5555;SDS011;2801;50.972;7.856;2023-04-01T08:33:15;0.68;;;0.50;;
5555;SDS011;2801;50.972;7.856;2023-04-01T08:38:58;0.73;;;0.40;;
5555;SDS011;2801;50.972;7.856;2023-04-01T08:42:03;0.75;;;0.50;;
5555;SDS011;2801;50.972;7.856;2023-04-01T08:45:15;0.50;;;0.47;;
5555;SDS011;2801;50.972;7.856;2023-04-01T08:48:11;1.58;;;0.55;;
5555;SDS011;2801;50.972;7.856;2023-04-01T08:51:12;0.63;;;0.50;;
5555;SDS011;2801;50.972;7.856;2023-04-01T09:00:24;1.60;;;0.73;;
5555;SDS011;2801;50.972;7.856;2023-04-01T09:15:25;0.70;;;0.50;;
5555;SDS011;2801;50.972;7.856;2023-04-01T09:18:43;1.08;;;0.80;;
5555;SDS011;2801;50.972;7.856;2023-04-01T09:21:23;1.40;;;0.98;;
5555;SDS011;2801;50.972;7.856;2023-04-01T09:27:10;3.13;;;1.40;;
5555;SDS011;2801;50.972;7.856;2023-04-01T09:42:13;1.20;;;0.90;;
5555;SDS011;2801;50.972;7.856;2023-04-01T09:45:18;1.05;;;0.82;;
5555;SDS011;2801;50.972;7.856;2023-04-01T09:59:58;0.98;;;0.80;;
5555;SDS011;2801;50.972;7.856;2023-04-01T10:20:55;1.30;;;1.07;;
5555;SDS011;2801;50.972;7.856;2023-04-01T10:30:19;2.03;;;1.00;;
5555;SDS011;2801;50.972;7.856;2023-04-01T10:47:39;1.25;;;1.00;;
5555;SDS011;2801;50.972;7.856;2023-04-01T10:53:41;1.02;;;0.90;;
5555;SDS011;2801;50.972;7.856;2023-04-01T10:56:51;1.30;;;1.15;;
5555;SDS011;2801;50.972;7.856;2023-04-01T11:14:52;1.52;;;1.17;;
5555;SDS011;2801;50.972;7.856;2023-04-01T11:21:06;1.80;;;1.30;;
5555;SDS011;2801;50.972;7.856;2023-04-01T11:24:06;1.35;;;1.25;;
5555;SDS011;2801;50.972;7.856;2023-04-01T11:27:20;2.38;;;1.48;;
5555;SDS011;2801;50.972;7.856;2023-04-01T11:30:11;2.97;;;1.60;;
5555;SDS011;2801;50.972;7.856;2023-04-01T11:33:05;3.13;;;2.05;;
5555;SDS011;2801;50.972;7.856;2023-04-01T11:44:22;3.60;;;1.98;;
5555;SDS011;2801;50.972;7.856;2023-04-01T11:47:02;4.93;;;2.55;;
5555;SDS011;2801;50.972;7.856;2023-04-01T12:11:15;3.40;;;2.40;;
5555;SDS011;2801;50.972;7.856;2023-04-01T12:14:11;2.72;;;1.80;;
5555;SDS011;2801;50.972;7.856;2023-04-01T12:17:17;2.67;;;2.00;;
5555;SDS011;2801;50.972;7.856;2023-04-01T12:20:21;3.33;;;2.05;;
5555;SDS011;2801;50.972;7.856;2023-04-01T12:23:21;3.95;;;2.05;;
5555;SDS011;2801;50.972;7.856;2023-04-01T12:33:18;2.97;;;2.00;;
5555;SDS011;2801;50.972;7.856;2023-04-01T12:36:10;3.88;;;2.33;;
5555;SDS011;2801;50.972;7.856;2023-04-01T12:39:32;3.03;;;2.10;;
5555;SDS011;2801;50.972;7.856;2023-04-01T12:59:58;3.08;;;2.30;;
5555;SDS011;2801;50.972;7.856;2023-04-01T13:06:00;3.72;;;2.33;;
5555;SDS011;2801;50.972;7.856;2023-04-01T13:08:48;3.35;;;2.13;;
5555;SDS011;2801;50.972;7.856;2023-04-01T13:17:03;3.30;;;2.50;;
5555;SDS011;2801;50.972;7.856;2023-04-01T13:20:02;4.57;;;2.85;;
5555;SDS011;2801;50.972;7.856;2023-04-01T13:22:45;5.28;;;2.42;;
5555;SDS011;2801;50.972;7.856;2023-04-01T13:28:45;4.95;;;2.60;;
5555;SDS011;2801;50.972;7.856;2023-04-01T13:31:24;4.82;;;2.85;;
5555;SDS011;2801;50.972;7.856;2023-04-01T13:42:35;4.88;;;2.90;;
5555;SDS011;2801;50.972;7.856;2023-04-01T13:45:24;5.45;;;3.70;;
5555;SDS011;2801;50.972;7.856;2023-04-01T14:06:05;6.40;;;4.00;;
5555;SDS011;2801;50.972;7.856;2023-04-01T14:15:09;6.55;;;3.90;;
5555;SDS011;2801;50.972;7.856;2023-04-01T14:23:59;5.10;;;3.22;;
5555;SDS011;2801;50.972;7.856;2023-04-01T14:30:10;4.20;;;2.60;;
5555;SDS011;2801;50.972;7.856;2023-04-01T14:48:13;5.13;;;2.88;;
5555;SDS011;2801;50.972;7.856;2023-04-01T14:51:15;3.78;;;2.88;;
5555;SDS011;2801;50.972;7.856;2023-04-01T14:54:32;3.40;;;2.90;;
5555;SDS011;2801;50.972;7.856;2023-04-01T14:59:49;4.22;;;3.08;;
5555;SDS011;2801;50.972;7.856;2023-04-01T15:05:32;4.10;;;2.83;;
5555;SDS011;2801;50.972;7.856;2023-04-01T15:18:57;3.78;;;2.03;;
5555;SDS011;2801;50.972;7.856;2023-04-01T15:27:46;2.63;;;1.90;;
5555;SDS011;2801;50.972;7.856;2023-04-01T15:30:38;3.05;;;2.03;;
5555;SDS011;2801;50.972;7.856;2023-04-01T15:39:51;3.17;;;2.28;;
5555;SDS011;2801;50.972;7.856;2023-04-01T15:42:46;6.63;;;3.17;;
5555;SDS011;2801;50.972;7.856;2023-04-01T15:49:13;3.35;;;2.30;;
5555;SDS011;2801;50.972;7.856;2023-04-01T16:01:44;4.45;;;2.60;;
5555;SDS011;2801;50.972;7.856;2023-04-01T16:10:49;4.65;;;2.40;;
5555;SDS011;2801;50.972;7.856;2023-04-01T16:13:56;4.03;;;2.30;;
5555;SDS011;2801;50.972;7.856;2023-04-01T16:19:41;2.63;;;2.00;;
5555;SDS011;2801;50.972;7.856;2023-04-01T16:28:16;5.47;;;2.85;;
5555;SDS011;2801;50.972;7.856;2023-04-01T16:31:03;5.72;;;3.53;;
5555;SDS011;2801;50.972;7.856;2023-04-01T16:34:17;5.85;;;3.35;;
5555;SDS011;2801;50.972;7.856;2023-04-01T16:37:19;7.00;;;3.10;;
5555;SDS011;2801;50.972;7.856;2023-04-01T16:40:25;5.45;;;3.10;;
5555;SDS011;2801;50.972;7.856;2023-04-01T16:43:41;6.18;;;3.15;;
5555;SDS011;2801;50.972;7.856;2023-04-01T16:51:44;4.00;;;2.78;;
5555;SDS011;2801;50.972;7.856;2023-04-01T16:54:31;4.72;;;2.85;;
5555;SDS011;2801;50.972;7.856;2023-04-01T17:00:26;3.55;;;2.13;;
5555;SDS011;2801;50.972;7.856;2023-04-01T17:03:17;2.80;;;1.88;;
5555;SDS011;2801;50.972;7.856;2023-04-01T17:06:07;6.28;;;3.20;;
5555;SDS011;2801;50.972;7.856;2023-04-01T17:25:01;6.43;;;3.77;;
5555;SDS011;2801;50.972;7.856;2023-04-01T17:27:55;5.78;;;3.22;;
5555;SDS011;2801;50.972;7.856;2023-04-01T17:37:13;4.68;;;2.60;;
5555;SDS011;2801;50.972;7.856;2023-04-01T17:51:40;5.20;;;3.35;;
5555;SDS011;2801;50.972;7.856;2023-04-01T18:00:02;4.67;;;2.87;;
5555;SDS011;2801;50.972;7.856;2023-04-01T18:05:58;6.05;;;3.35;;
5555;SDS011;2801;50.972;7.856;2023-04-01T18:08:54;6.45;;;4.07;;
5555;SDS011;2801;50.972;7.856;2023-04-01T18:20:54;5.25;;;3.20;;
5555;SDS011;2801;50.972;7.856;2023-04-01T18:30:35;5.78;;;3.45;;
5555;SDS011;2801;50.972;7.856;2023-04-01T18:33:15;5.38;;;3.40;;
5555;SDS011;2801;50.972;7.856;2023-04-01T18:36:03;4.97;;;3.00;;
5555;SDS011;2801;50.972;7.856;2023-04-01T18:38:53;5.07;;;2.92;;
5555;SDS011;2801;50.972;7.856;2023-04-01T18:41:34;6.43;;;3.58;;
5555;SDS011;2801;50.972;7.856;2023-04-01T18:44:46;6.05;;;3.72;;
5555;SDS011;2801;50.972;7.856;2023-04-01T18:56:24;7.05;;;3.60;;
5555;SDS011;2801;50.972;7.856;2023-04-01T18:59:08;5.30;;;2.72;;
5555;SDS011;2801;50.972;7.856;2023-04-01T19:04:50;4.17;;;2.83;;
5555;SDS011;2801;50.972;7.856;2023-04-01T19:10:14;4.47;;;2.77;;
5555;SDS011;2801;50.972;7.856;2023-04-01T19:13:08;5.03;;;2.75;;
5555;SDS011;2801;50.972;7.856;2023-04-01T19:21:19;4.43;;;2.78;;
5555;SDS011;2801;50.972;7.856;2023-04-01T19:29:55;5.53;;;3.10;;
5555;SDS011;2801;50.972;7.856;2023-04-01T19:41:43;4.75;;;2.72;;
5555;SDS011;2801;50.972;7.856;2023-04-01T19:50:50;5.15;;;3.08;;
5555;SDS011;2801;50.972;7.856;2023-04-01T19:56:17;4.93;;;3.37;;
5555;SDS011;2801;50.972;7.856;2023-04-01T20:02:20;5.40;;;3.35;;
5555;SDS011;2801;50.972;7.856;2023-04-01T20:04:56;5.65;;;3.08;;
5555;SDS011;2801;50.972;7.856;2023-04-01T20:07:52;4.32;;;2.88;;
5555;SDS011;2801;50.972;7.856;2023-04-01T20:10:42;3.50;;;2.78;;
5555;SDS011;2801;50.972;7.856;2023-04-01T20:13:44;5.80;;;3.05;;
5555;SDS011;2801;50.972;7.856;2023-04-01T20:16:37;5.63;;;3.45;;
5555;SDS011;2801;50.972;7.856;2023-04-01T20:19:21;4.25;;;2.95;;
5555;SDS011;2801;50.972;7.856;2023-04-01T20:25:13;5.20;;;3.67;;
5555;SDS011;2801;50.972;7.856;2023-04-01T20:28:28;5.13;;;3.07;;
5555;SDS011;2801;50.972;7.856;2023-04-01T20:36:57;4.22;;;2.80;;
5555;SDS011;2801;50.972;7.856;2023-04-01T20:45:13;4.68;;;2.95;;
5555;SDS011;2801;50.972;7.856;2023-04-01T20:51:00;5.45;;;3.60;;
5555;SDS011;2801;50.972;7.856;2023-04-01T21:16:58;8.90;;;4.73;;
5555;SDS011;2801;50.972;7.856;2023-04-01T21:20:16;9.38;;;4.88;;
5555;SDS011;2801;50.972;7.856;2023-04-01T21:44:00;7.22;;;4.47;;
5555;SDS011;2801;50.972;7.856;2023-04-01T21:46:53;9.23;;;5.20;;
5555;SDS011;2801;50.972;7.856;2023-04-01T22:21:05;9.80;;;5.57;;
5555;SDS011;2801;50.972;7.856;2023-04-01T22:29:17;9.57;;;5.70;;
5555;SDS011;2801;50.972;7.856;2023-04-01T22:32:14;11.10;;;5.55;;
5555;SDS011;2801;50.972;7.856;2023-04-01T22:43:45;7.50;;;4.88;;
5555;SDS011;2801;50.972;7.856;2023-04-01T22:49:03;6.77;;;4.30;;
5555;SDS011;2801;50.972;7.856;2023-04-01T22:54:58;8.32;;;4.18;;
5555;SDS011;2801;50.972;7.856;2023-04-01T22:57:40;7.03;;;4.20;;
5555;SDS011;2801;50.972;7.856;2023-04-01T23:00:25;7.53;;;4.60;;
5555;SDS011;2801;50.972;7.856;2023-04-01T23:05:51;8.40;;;4.20;;
5555;SDS011;2801;50.972;7.856;2023-04-01T23:12:07;7.35;;;4.35;;
5555;SDS011;2801;50.972;7.856;2023-04-01T23:19:37;6.67;;;4.27;;
5555;SDS011;2801;50.972;7.856;2023-04-01T23:22:37;11.05;;;4.53;;
5555;SDS011;2801;50.972;7.856;2023-04-01T23:28:41;9.70;;;4.32;;
5555;SDS011;2801;50.972;7.856;2023-04-01T23:31:24;10.03;;;4.70;;
5555;SDS011;2801;50.972;7.856;2023-04-01T23:33:59;9.73;;;4.63;;
5555;SDS011;2801;50.972;7.856;2023-04-01T23:37:04;8.93;;;4.68;;
5555;SDS011;2801;50.972;7.856;2023-04-01T23:39:38;7.57;;;4.20;;
5555;SDS011;2801;50.972;7.856;2023-04-01T23:44:53;8.93;;;4.47;;
5555;SDS011;2801;50.972;7.856;2023-04-01T23:47:31;9.02;;;4.35;;
5555;SDS011;2801;50.972;7.856;2023-04-01T23:50:06;9.93;;;3.78;;
5555;SDS011;2801;50.972;7.856;2023-04-01T23:52:46;11.13;;;4.40;;
5555;SDS011;2801;50.972;7.856;2023-04-01T23:55:31;13.73;;;4.20;;
